Kezdőlap
METAR-TAF:

METAR-TAF

Repülőterek :

Varsó-Chopin repülőtér

Varsó, Lengyelország

földrajzi szélesség: 52-10N, földrajzi hosszúság: 020-58E, magasság: 106 m

Jelenlegi meteorológiai megfigyelések

A jelentés 11 perccel ezelõtt készült, 05:30 UTC
Dél-délkeleti szél 3 kt
Hőmérséklet 14°C
Páratartalom 94%
Légköri nyomás 1020 hPa
Látótávolság 10 km, vagy több
felhőtlen 1500 m magasságban, és nincs gomolyfelhõ

METAR: EPWA 200530Z 16003KT CAVOK 14/13 Q1020 NOSIG

Idő: 07:41 (05:41 UTC)

Előrejelzés

A jelentés 11 perccel ezelõtt készült, 05:30 UTC
Az előrejelzés 20-én 06 óra UTC és 21-én 06 óra UTC között érvényes
Déli szél 4 kt
Látótávolság 10 km, vagy több
felhőtlen 1500 m magasságban, és nincs gomolyfelhõ

TAF: EPWA 200530Z 2006/2106 18004KT CAVOK

Meteorológiai megfigyelések és előrejelzések több, mint 4000 repülőtéren (METAR és TAF jelentéseket).

A térképen piros és sárga pontok jelzik az elérhető meteorológiai állomásokat.

Mozgassa az egeret a pont fölött, hogy megjelenjen az állomás neve.

Azután kattintson az időjárási megfigyelések és előrejelzések megtekintéséhez.

A térkép megváltoztatása: kattintson a fekete keresztel jelölt zöld gombra ráközelítéshez, a vonallal jelölt zöld gombra távolításhoz, vagy a zöld nyilakra a szomszédos térképek eléréséhez.


METAR-TAF: